Estación Meteorológica Peña el Pijo (Robertgarden) [ 12/10/18 11:29:36 CET ]

Fecha Hora Presion(HPa) Temp (°C) Humedad % Rocio (°C) Viento ( m/s) Direccion Lluvia 1Hora(mm) Lluvia 24H(mm) LLuvia Total(mm)
2018-Oct-06 01:01:35 1010.900 10.1 79 6.6         0.00
2018-Oct-06 02:01:51 1010.800 9.4 80 6.1         0.00
2018-Oct-06 03:01:39 1010.600 9.3 81 6.2         0.00
2018-Oct-06 04:03:29 1010.200 9.1 82 6.1         0.00
2018-Oct-06 05:01:40 1010.000 8.6 83 5.9         0.00
2018-Oct-06 06:01:44 1009.600 8.1 83 5.4         0.00
2018-Oct-06 07:01:42 1009.700 8.2 84 5.7         0.00
2018-Oct-06 08:01:32 1010.300 8.1 83 5.4         0.00
2018-Oct-06 09:01:33 1010.600 7.9 83 5.2         0.00
2018-Oct-06 10:01:59 1010.900 15.3 80 11.9         0.00
2018-Oct-06 11:02:04 1010.800 23.1 52 12.7         0.00
2018-Oct-06 12:01:52 1010.500 26.8 32 8.7         0.00
2018-Oct-06 13:01:58 1010.200 28.2 29 8.4         0.00
2018-Oct-06 14:01:45 1009.400 27.6 28 7.3         0.00
2018-Oct-06 15:01:48 1008.800 24.4 33 7.0         0.00
2018-Oct-06 16:01:49 1008.600 24.6 31 6.4         0.00
2018-Oct-06 17:01:37 1008.600 27.4 26 6.0         0.00
2018-Oct-06 18:01:55 1008.500 25.9 27 5.3         0.00
2018-Oct-06 19:01:55 1008.600 22.8 28 3.2         0.00
2018-Oct-06 20:01:47 1009.000 18.1 37 3.1         0.00
2018-Oct-06 21:01:47 1009.600 13.3 50 3.1         0.00
2018-Oct-06 22:01:55 1009.600 10.9 59 3.2         0.00
2018-Oct-06 23:01:44 1010.100 9.6 62 2.7         0.00

Temperatura Máxima:28°    Temperatura Mínima:
Presión Máxima:1010.900 Hpa    Presión Mínima:1008.500 Hpa


Volver